sensor_id;sensor_type;location;lat;lon;timestamp;P1;durP1;ratioP1;P2;durP2;ratioP2
51836;SDS011;38941;53.254;6.600;2024-03-02T00:01:26;3.17;;;2.10;;
51836;SDS011;38941;53.254;6.600;2024-03-02T00:03:27;4.32;;;2.10;;
51836;SDS011;38941;53.254;6.600;2024-03-02T00:05:29;3.17;;;1.90;;
51836;SDS011;38941;53.254;6.600;2024-03-02T00:07:29;4.07;;;1.73;;
51836;SDS011;38941;53.254;6.600;2024-03-02T00:09:31;4.32;;;2.20;;
51836;SDS011;38941;53.254;6.600;2024-03-02T00:11:34;3.20;;;1.70;;
51836;SDS011;38941;53.254;6.600;2024-03-02T00:13:36;3.65;;;1.80;;
51836;SDS011;38941;53.254;6.600;2024-03-02T00:17:44;4.13;;;2.08;;
51836;SDS011;38941;53.254;6.600;2024-03-02T00:19:45;2.95;;;1.70;;
51836;SDS011;38941;53.254;6.600;2024-03-02T00:21:46;4.45;;;2.38;;
51836;SDS011;38941;53.254;6.600;2024-03-02T00:23:48;4.43;;;2.40;;
51836;SDS011;38941;53.254;6.600;2024-03-02T00:25:52;6.30;;;2.10;;
51836;SDS011;38941;53.254;6.600;2024-03-02T00:27:54;4.13;;;2.55;;
51836;SDS011;38941;53.254;6.600;2024-03-02T00:29:56;3.33;;;1.70;;
51836;SDS011;38941;53.254;6.600;2024-03-02T00:31:57;3.88;;;2.20;;
51836;SDS011;38941;53.254;6.600;2024-03-02T00:33:58;3.50;;;1.85;;
51836;SDS011;38941;53.254;6.600;2024-03-02T00:36:04;4.97;;;2.10;;
51836;SDS011;38941;53.254;6.600;2024-03-02T00:38:06;4.78;;;2.00;;
51836;SDS011;38941;53.254;6.600;2024-03-02T00:40:07;4.30;;;1.90;;
51836;SDS011;38941;53.254;6.600;2024-03-02T00:42:08;5.13;;;2.70;;
51836;SDS011;38941;53.254;6.600;2024-03-02T00:44:14;3.80;;;2.17;;
51836;SDS011;38941;53.254;6.600;2024-03-02T00:46:16;3.20;;;1.70;;
51836;SDS011;38941;53.254;6.600;2024-03-02T00:48:19;4.65;;;2.08;;
51836;SDS011;38941;53.254;6.600;2024-03-02T00:50:19;4.57;;;2.05;;
51836;SDS011;38941;53.254;6.600;2024-03-02T00:52:21;3.97;;;2.05;;
51836;SDS011;38941;53.254;6.600;2024-03-02T00:54:25;4.93;;;2.28;;
51836;SDS011;38941;53.254;6.600;2024-03-02T00:56:26;6.90;;;2.45;;
51836;SDS011;38941;53.254;6.600;2024-03-02T00:58:27;4.00;;;2.20;;
51836;SDS011;38941;53.254;6.600;2024-03-02T01:00:29;3.45;;;2.47;;
51836;SDS011;38941;53.254;6.600;2024-03-02T01:02:29;3.53;;;2.28;;
51836;SDS011;38941;53.254;6.600;2024-03-02T01:04:30;3.80;;;2.13;;
51836;SDS011;38941;53.254;6.600;2024-03-02T01:06:31;6.03;;;2.08;;
51836;SDS011;38941;53.254;6.600;2024-03-02T01:08:32;4.50;;;2.30;;
51836;SDS011;38941;53.254;6.600;2024-03-02T01:10:33;4.65;;;2.35;;
51836;SDS011;38941;53.254;6.600;2024-03-02T01:12:33;5.13;;;2.47;;
51836;SDS011;38941;53.254;6.600;2024-03-02T01:14:34;3.22;;;2.13;;
51836;SDS011;38941;53.254;6.600;2024-03-02T01:16:35;4.97;;;2.20;;
51836;SDS011;38941;53.254;6.600;2024-03-02T01:18:36;3.67;;;2.22;;
51836;SDS011;38941;53.254;6.600;2024-03-02T01:20:37;4.55;;;2.30;;
51836;SDS011;38941;53.254;6.600;2024-03-02T01:22:38;3.63;;;2.30;;
51836;SDS011;38941;53.254;6.600;2024-03-02T01:24:39;3.30;;;1.80;;
51836;SDS011;38941;53.254;6.600;2024-03-02T01:26:41;4.57;;;2.53;;
51836;SDS011;38941;53.254;6.600;2024-03-02T01:28:41;4.53;;;2.65;;
51836;SDS011;38941;53.254;6.600;2024-03-02T01:30:42;5.88;;;2.70;;
51836;SDS011;38941;53.254;6.600;2024-03-02T01:32:43;4.30;;;2.40;;
51836;SDS011;38941;53.254;6.600;2024-03-02T01:34:44;6.80;;;2.30;;
51836;SDS011;38941;53.254;6.600;2024-03-02T01:36:44;4.53;;;2.25;;
51836;SDS011;38941;53.254;6.600;2024-03-02T01:38:45;4.38;;;2.53;;
51836;SDS011;38941;53.254;6.600;2024-03-02T01:40:46;4.00;;;2.10;;
51836;SDS011;38941;53.254;6.600;2024-03-02T01:42:46;3.97;;;2.53;;
51836;SDS011;38941;53.254;6.600;2024-03-02T01:44:47;6.40;;;2.75;;
51836;SDS011;38941;53.254;6.600;2024-03-02T01:46:48;4.95;;;2.50;;
51836;SDS011;38941;53.254;6.600;2024-03-02T01:48:49;3.90;;;2.78;;
51836;SDS011;38941;53.254;6.600;2024-03-02T01:50:49;5.57;;;2.90;;
51836;SDS011;38941;53.254;6.600;2024-03-02T01:52:50;4.32;;;2.28;;
51836;SDS011;38941;53.254;6.600;2024-03-02T01:54:51;3.92;;;2.22;;
51836;SDS011;38941;53.254;6.600;2024-03-02T01:56:53;3.90;;;2.10;;
51836;SDS011;38941;53.254;6.600;2024-03-02T01:58:55;3.72;;;2.33;;
51836;SDS011;38941;53.254;6.600;2024-03-02T02:00:55;8.10;;;2.42;;
51836;SDS011;38941;53.254;6.600;2024-03-02T02:02:56;4.38;;;2.50;;
51836;SDS011;38941;53.254;6.600;2024-03-02T02:04:57;4.28;;;2.45;;
51836;SDS011;38941;53.254;6.600;2024-03-02T02:06:58;6.30;;;2.60;;
51836;SDS011;38941;53.254;6.600;2024-03-02T02:09:00;6.40;;;3.00;;
51836;SDS011;38941;53.254;6.600;2024-03-02T02:11:00;4.32;;;2.40;;
51836;SDS011;38941;53.254;6.600;2024-03-02T02:13:01;3.65;;;2.28;;
51836;SDS011;38941;53.254;6.600;2024-03-02T02:15:03;4.57;;;2.70;;
51836;SDS011;38941;53.254;6.600;2024-03-02T02:17:23;4.20;;;2.63;;
51836;SDS011;38941;53.254;6.600;2024-03-02T02:19:24;4.90;;;2.38;;
51836;SDS011;38941;53.254;6.600;2024-03-02T02:21:25;5.47;;;2.72;;
51836;SDS011;38941;53.254;6.600;2024-03-02T02:23:26;6.30;;;3.38;;
51836;SDS011;38941;53.254;6.600;2024-03-02T02:25:33;5.13;;;2.50;;
51836;SDS011;38941;53.254;6.600;2024-03-02T02:27:34;5.05;;;2.55;;
51836;SDS011;38941;53.254;6.600;2024-03-02T02:31:42;5.60;;;2.95;;
51836;SDS011;38941;53.254;6.600;2024-03-02T02:33:43;3.58;;;2.20;;
51836;SDS011;38941;53.254;6.600;2024-03-02T02:38:34;5.25;;;2.63;;
51836;SDS011;38941;53.254;6.600;2024-03-02T02:43:02;5.78;;;2.72;;
51836;SDS011;38941;53.254;6.600;2024-03-02T02:45:04;4.65;;;2.28;;
51836;SDS011;38941;53.254;6.600;2024-03-02T02:47:06;12.45;;;3.55;;
51836;SDS011;38941;53.254;6.600;2024-03-02T02:49:08;5.32;;;2.47;;
51836;SDS011;38941;53.254;6.600;2024-03-02T02:51:09;3.85;;;2.70;;
51836;SDS011;38941;53.254;6.600;2024-03-02T02:53:10;5.13;;;2.17;;
51836;SDS011;38941;53.254;6.600;2024-03-02T02:55:11;4.45;;;2.20;;
51836;SDS011;38941;53.254;6.600;2024-03-02T02:57:13;4.40;;;2.50;;
51836;SDS011;38941;53.254;6.600;2024-03-02T02:59:14;7.97;;;2.67;;
51836;SDS011;38941;53.254;6.600;2024-03-02T03:01:15;4.60;;;2.92;;
51836;SDS011;38941;53.254;6.600;2024-03-02T03:03:19;5.75;;;2.38;;
51836;SDS011;38941;53.254;6.600;2024-03-02T03:05:20;4.25;;;2.67;;
51836;SDS011;38941;53.254;6.600;2024-03-02T03:07:21;4.28;;;2.20;;
51836;SDS011;38941;53.254;6.600;2024-03-02T03:09:22;3.78;;;2.40;;
51836;SDS011;38941;53.254;6.600;2024-03-02T03:11:22;4.13;;;1.88;;
51836;SDS011;38941;53.254;6.600;2024-03-02T03:13:24;3.67;;;2.00;;
51836;SDS011;38941;53.254;6.600;2024-03-02T03:15:25;4.28;;;2.05;;
51836;SDS011;38941;53.254;6.600;2024-03-02T03:17:26;3.97;;;2.00;;
51836;SDS011;38941;53.254;6.600;2024-03-02T03:19:27;4.18;;;2.47;;
51836;SDS011;38941;53.254;6.600;2024-03-02T03:21:28;3.80;;;2.00;;
51836;SDS011;38941;53.254;6.600;2024-03-02T03:23:29;4.47;;;1.80;;
51836;SDS011;38941;53.254;6.600;2024-03-02T03:25:30;4.07;;;1.75;;
51836;SDS011;38941;53.254;6.600;2024-03-02T03:27:31;4.53;;;2.13;;
51836;SDS011;38941;53.254;6.600;2024-03-02T03:29:32;3.17;;;1.90;;
51836;SDS011;38941;53.254;6.600;2024-03-02T03:31:33;4.13;;;2.05;;
51836;SDS011;38941;53.254;6.600;2024-03-02T03:33:33;2.75;;;1.63;;
51836;SDS011;38941;53.254;6.600;2024-03-02T03:35:34;4.75;;;2.30;;
51836;SDS011;38941;53.254;6.600;2024-03-02T03:37:35;4.55;;;2.00;;
51836;SDS011;38941;53.254;6.600;2024-03-02T03:39:36;3.45;;;1.70;;
51836;SDS011;38941;53.254;6.600;2024-03-02T03:41:37;3.33;;;1.95;;
51836;SDS011;38941;53.254;6.600;2024-03-02T03:43:38;2.28;;;1.60;;
51836;SDS011;38941;53.254;6.600;2024-03-02T03:45:39;4.20;;;1.80;;
51836;SDS011;38941;53.254;6.600;2024-03-02T03:47:40;6.03;;;1.95;;
51836;SDS011;38941;53.254;6.600;2024-03-02T03:49:40;4.32;;;1.73;;
51836;SDS011;38941;53.254;6.600;2024-03-02T03:51:42;3.47;;;1.42;;
51836;SDS011;38941;53.254;6.600;2024-03-02T03:53:43;3.20;;;1.70;;
51836;SDS011;38941;53.254;6.600;2024-03-02T03:55:44;5.45;;;1.67;;
51836;SDS011;38941;53.254;6.600;2024-03-02T03:57:46;3.42;;;1.55;;
51836;SDS011;38941;53.254;6.600;2024-03-02T03:59:47;5.80;;;1.77;;
51836;SDS011;38941;53.254;6.600;2024-03-02T04:01:48;2.28;;;1.13;;
51836;SDS011;38941;53.254;6.600;2024-03-02T04:03:48;4.18;;;2.20;;
51836;SDS011;38941;53.254;6.600;2024-03-02T04:05:49;3.63;;;1.50;;
51836;SDS011;38941;53.254;6.600;2024-03-02T04:07:50;3.17;;;1.50;;
51836;SDS011;38941;53.254;6.600;2024-03-02T04:09:53;2.65;;;1.40;;
51836;SDS011;38941;53.254;6.600;2024-03-02T04:11:54;3.72;;;1.50;;
51836;SDS011;38941;53.254;6.600;2024-03-02T04:13:54;2.13;;;1.30;;
51836;SDS011;38941;53.254;6.600;2024-03-02T04:15:56;2.20;;;1.30;;
51836;SDS011;38941;53.254;6.600;2024-03-02T04:17:58;1.58;;;1.45;;
51836;SDS011;38941;53.254;6.600;2024-03-02T04:19:59;2.20;;;1.52;;
51836;SDS011;38941;53.254;6.600;2024-03-02T04:22:00;2.22;;;1.45;;
51836;SDS011;38941;53.254;6.600;2024-03-02T04:24:00;2.47;;;1.60;;
51836;SDS011;38941;53.254;6.600;2024-03-02T04:26:02;4.15;;;1.88;;
51836;SDS011;38941;53.254;6.600;2024-03-02T04:28:04;3.08;;;1.52;;
51836;SDS011;38941;53.254;6.600;2024-03-02T04:30:05;3.58;;;1.88;;
51836;SDS011;38941;53.254;6.600;2024-03-02T04:32:06;2.63;;;1.67;;
51836;SDS011;38941;53.254;6.600;2024-03-02T04:34:07;4.07;;;1.80;;
51836;SDS011;38941;53.254;6.600;2024-03-02T04:36:09;2.70;;;1.60;;
51836;SDS011;38941;53.254;6.600;2024-03-02T04:38:11;3.03;;;1.45;;
51836;SDS011;38941;53.254;6.600;2024-03-02T04:40:11;3.22;;;2.22;;
51836;SDS011;38941;53.254;6.600;2024-03-02T04:42:12;2.63;;;1.63;;
51836;SDS011;38941;53.254;6.600;2024-03-02T04:44:14;3.63;;;1.55;;
51836;SDS011;38941;53.254;6.600;2024-03-02T04:46:15;2.78;;;1.73;;
51836;SDS011;38941;53.254;6.600;2024-03-02T04:48:15;3.78;;;1.77;;
51836;SDS011;38941;53.254;6.600;2024-03-02T04:50:16;2.70;;;1.40;;
51836;SDS011;38941;53.254;6.600;2024-03-02T04:52:18;2.50;;;1.38;;
51836;SDS011;38941;53.254;6.600;2024-03-02T04:54:19;2.70;;;1.60;;
51836;SDS011;38941;53.254;6.600;2024-03-02T04:56:19;2.60;;;1.50;;
51836;SDS011;38941;53.254;6.600;2024-03-02T04:58:23;4.57;;;1.73;;
51836;SDS011;38941;53.254;6.600;2024-03-02T05:00:23;3.72;;;1.77;;
51836;SDS011;38941;53.254;6.600;2024-03-02T05:02:24;4.03;;;1.58;;
51836;SDS011;38941;53.254;6.600;2024-03-02T05:04:25;2.92;;;1.67;;
51836;SDS011;38941;53.254;6.600;2024-03-02T05:06:27;4.47;;;2.00;;
51836;SDS011;38941;53.254;6.600;2024-03-02T05:08:28;2.20;;;1.63;;
51836;SDS011;38941;53.254;6.600;2024-03-02T05:10:30;3.90;;;1.80;;
51836;SDS011;38941;53.254;6.600;2024-03-02T05:12:31;2.00;;;1.40;;
51836;SDS011;38941;53.254;6.600;2024-03-02T05:14:55;2.38;;;1.73;;
51836;SDS011;38941;53.254;6.600;2024-03-02T05:16:56;3.75;;;2.30;;
51836;SDS011;38941;53.254;6.600;2024-03-02T05:18:56;2.78;;;1.48;;
51836;SDS011;38941;53.254;6.600;2024-03-02T05:20:57;1.75;;;1.40;;
51836;SDS011;38941;53.254;6.600;2024-03-02T05:22:58;3.60;;;1.80;;
51836;SDS011;38941;53.254;6.600;2024-03-02T05:24:59;2.65;;;1.50;;
51836;SDS011;38941;53.254;6.600;2024-03-02T05:27:00;3.08;;;1.58;;
51836;SDS011;38941;53.254;6.600;2024-03-02T05:29:01;3.65;;;1.50;;
51836;SDS011;38941;53.254;6.600;2024-03-02T05:31:04;3.97;;;2.03;;
51836;SDS011;38941;53.254;6.600;2024-03-02T05:33:05;3.35;;;1.55;;
51836;SDS011;38941;53.254;6.600;2024-03-02T05:35:07;2.85;;;1.80;;
51836;SDS011;38941;53.254;6.600;2024-03-02T05:37:08;2.63;;;1.80;;
51836;SDS011;38941;53.254;6.600;2024-03-02T05:39:09;2.70;;;1.67;;
51836;SDS011;38941;53.254;6.600;2024-03-02T05:41:10;5.43;;;1.95;;
51836;SDS011;38941;53.254;6.600;2024-03-02T05:43:11;8.25;;;2.17;;
51836;SDS011;38941;53.254;6.600;2024-03-02T05:45:12;3.33;;;1.80;;
51836;SDS011;38941;53.254;6.600;2024-03-02T05:47:13;3.78;;;1.80;;
51836;SDS011;38941;53.254;6.600;2024-03-02T05:49:14;2.60;;;1.77;;
51836;SDS011;38941;53.254;6.600;2024-03-02T05:51:14;4.78;;;2.20;;
51836;SDS011;38941;53.254;6.600;2024-03-02T05:53:15;4.55;;;2.17;;
51836;SDS011;38941;53.254;6.600;2024-03-02T05:55:16;4.00;;;1.90;;
51836;SDS011;38941;53.254;6.600;2024-03-02T05:57:17;5.05;;;2.15;;
51836;SDS011;38941;53.254;6.600;2024-03-02T05:59:31;3.38;;;1.80;;
51836;SDS011;38941;53.254;6.600;2024-03-02T06:01:32;3.05;;;2.08;;
51836;SDS011;38941;53.254;6.600;2024-03-02T06:03:33;5.18;;;2.15;;
51836;SDS011;38941;53.254;6.600;2024-03-02T06:05:34;3.63;;;1.85;;
51836;SDS011;38941;53.254;6.600;2024-03-02T06:07:34;5.25;;;1.88;;
51836;SDS011;38941;53.254;6.600;2024-03-02T06:09:35;3.75;;;1.77;;
51836;SDS011;38941;53.254;6.600;2024-03-02T06:11:36;4.80;;;2.15;;
51836;SDS011;38941;53.254;6.600;2024-03-02T06:13:37;4.45;;;1.90;;
51836;SDS011;38941;53.254;6.600;2024-03-02T06:15:38;3.25;;;1.75;;
51836;SDS011;38941;53.254;6.600;2024-03-02T06:17:39;3.25;;;1.85;;
51836;SDS011;38941;53.254;6.600;2024-03-02T06:19:41;4.10;;;2.40;;
51836;SDS011;38941;53.254;6.600;2024-03-02T06:21:43;3.10;;;1.80;;
51836;SDS011;38941;53.254;6.600;2024-03-02T06:23:44;4.60;;;1.60;;
51836;SDS011;38941;53.254;6.600;2024-03-02T06:25:45;2.63;;;1.58;;
51836;SDS011;38941;53.254;6.600;2024-03-02T06:27:46;2.17;;;1.52;;
51836;SDS011;38941;53.254;6.600;2024-03-02T06:29:46;3.58;;;1.70;;
51836;SDS011;38941;53.254;6.600;2024-03-02T06:31:48;2.90;;;2.10;;
51836;SDS011;38941;53.254;6.600;2024-03-02T06:33:49;1.98;;;1.48;;
51836;SDS011;38941;53.254;6.600;2024-03-02T06:35:50;5.13;;;2.15;;
51836;SDS011;38941;53.254;6.600;2024-03-02T06:37:50;3.78;;;1.88;;
51836;SDS011;38941;53.254;6.600;2024-03-02T06:39:51;3.35;;;1.95;;
51836;SDS011;38941;53.254;6.600;2024-03-02T06:41:52;2.78;;;1.27;;
51836;SDS011;38941;53.254;6.600;2024-03-02T06:43:55;2.85;;;1.70;;
51836;SDS011;38941;53.254;6.600;2024-03-02T06:46:00;5.70;;;1.95;;
51836;SDS011;38941;53.254;6.600;2024-03-02T06:48:01;3.35;;;1.90;;
51836;SDS011;38941;53.254;6.600;2024-03-02T06:50:02;4.15;;;1.85;;
51836;SDS011;38941;53.254;6.600;2024-03-02T06:52:04;4.97;;;1.52;;
51836;SDS011;38941;53.254;6.600;2024-03-02T06:54:05;3.38;;;2.03;;
51836;SDS011;38941;53.254;6.600;2024-03-02T06:56:06;3.28;;;1.60;;
51836;SDS011;38941;53.254;6.600;2024-03-02T06:58:08;4.07;;;1.60;;
51836;SDS011;38941;53.254;6.600;2024-03-02T07:00:09;2.58;;;1.83;;
51836;SDS011;38941;53.254;6.600;2024-03-02T07:02:10;2.03;;;1.42;;
51836;SDS011;38941;53.254;6.600;2024-03-02T07:04:10;2.85;;;1.67;;
51836;SDS011;38941;53.254;6.600;2024-03-02T07:06:11;3.03;;;1.83;;
51836;SDS011;38941;53.254;6.600;2024-03-02T07:08:12;6.18;;;2.03;;
51836;SDS011;38941;53.254;6.600;2024-03-02T07:10:13;3.33;;;1.73;;
51836;SDS011;38941;53.254;6.600;2024-03-02T07:12:14;2.60;;;1.50;;
51836;SDS011;38941;53.254;6.600;2024-03-02T07:14:14;6.07;;;2.15;;
51836;SDS011;38941;53.254;6.600;2024-03-02T07:16:15;4.30;;;1.67;;
51836;SDS011;38941;53.254;6.600;2024-03-02T07:18:30;4.28;;;1.35;;
51836;SDS011;38941;53.254;6.600;2024-03-02T07:20:30;2.95;;;1.30;;
51836;SDS011;38941;53.254;6.600;2024-03-02T07:22:31;2.20;;;1.40;;
51836;SDS011;38941;53.254;6.600;2024-03-02T07:24:32;4.18;;;1.58;;
51836;SDS011;38941;53.254;6.600;2024-03-02T07:26:32;4.25;;;1.95;;
51836;SDS011;38941;53.254;6.600;2024-03-02T07:28:33;2.40;;;1.40;;
51836;SDS011;38941;53.254;6.600;2024-03-02T07:30:34;3.28;;;1.40;;
51836;SDS011;38941;53.254;6.600;2024-03-02T07:32:35;6.32;;;2.05;;
51836;SDS011;38941;53.254;6.600;2024-03-02T07:34:36;2.90;;;1.60;;
51836;SDS011;38941;53.254;6.600;2024-03-02T07:36:37;1.80;;;1.33;;
51836;SDS011;38941;53.254;6.600;2024-03-02T07:38:39;2.25;;;1.67;;
51836;SDS011;38941;53.254;6.600;2024-03-02T07:40:40;3.63;;;1.60;;
51836;SDS011;38941;53.254;6.600;2024-03-02T07:42:42;5.28;;;1.85;;
51836;SDS011;38941;53.254;6.600;2024-03-02T07:44:46;4.55;;;1.45;;
51836;SDS011;38941;53.254;6.600;2024-03-02T07:46:48;3.40;;;1.80;;
51836;SDS011;38941;53.254;6.600;2024-03-02T07:48:51;4.15;;;2.05;;
51836;SDS011;38941;53.254;6.600;2024-03-02T07:50:52;4.85;;;2.35;;
51836;SDS011;38941;53.254;6.600;2024-03-02T07:52:53;2.45;;;1.65;;
51836;SDS011;38941;53.254;6.600;2024-03-02T07:54:54;4.45;;;2.30;;
51836;SDS011;38941;53.254;6.600;2024-03-02T07:56:55;3.25;;;1.60;;
51836;SDS011;38941;53.254;6.600;2024-03-02T07:58:56;3.38;;;1.70;;
51836;SDS011;38941;53.254;6.600;2024-03-02T08:01:00;3.05;;;1.70;;
51836;SDS011;38941;53.254;6.600;2024-03-02T08:03:01;3.10;;;1.98;;
51836;SDS011;38941;53.254;6.600;2024-03-02T08:05:02;4.75;;;1.70;;
51836;SDS011;38941;53.254;6.600;2024-03-02T08:07:03;2.95;;;1.45;;
51836;SDS011;38941;53.254;6.600;2024-03-02T08:09:04;2.58;;;1.60;;
51836;SDS011;38941;53.254;6.600;2024-03-02T08:11:09;2.95;;;1.73;;
51836;SDS011;38941;53.254;6.600;2024-03-02T08:13:10;4.55;;;1.77;;
51836;SDS011;38941;53.254;6.600;2024-03-02T08:15:12;2.38;;;1.63;;
51836;SDS011;38941;53.254;6.600;2024-03-02T08:17:13;2.47;;;1.60;;
51836;SDS011;38941;53.254;6.600;2024-03-02T08:19:13;2.85;;;1.92;;
51836;SDS011;38941;53.254;6.600;2024-03-02T08:21:14;2.75;;;1.40;;
51836;SDS011;38941;53.254;6.600;2024-03-02T08:23:16;3.78;;;1.50;;
51836;SDS011;38941;53.254;6.600;2024-03-02T08:25:17;2.67;;;1.23;;
51836;SDS011;38941;53.254;6.600;2024-03-02T08:27:18;3.60;;;1.33;;
51836;SDS011;38941;53.254;6.600;2024-03-02T08:29:19;4.28;;;1.75;;
51836;SDS011;38941;53.254;6.600;2024-03-02T08:31:19;3.83;;;1.55;;
51836;SDS011;38941;53.254;6.600;2024-03-02T08:33:20;2.40;;;1.42;;
51836;SDS011;38941;53.254;6.600;2024-03-02T08:35:21;5.50;;;1.90;;
51836;SDS011;38941;53.254;6.600;2024-03-02T08:37:22;2.20;;;1.33;;
51836;SDS011;38941;53.254;6.600;2024-03-02T08:39:23;1.77;;;1.30;;
51836;SDS011;38941;53.254;6.600;2024-03-02T08:41:24;2.25;;;1.52;;
51836;SDS011;38941;53.254;6.600;2024-03-02T08:43:25;2.17;;;1.10;;
51836;SDS011;38941;53.254;6.600;2024-03-02T08:45:26;1.15;;;0.80;;
51836;SDS011;38941;53.254;6.600;2024-03-02T08:47:27;3.22;;;1.15;;
51836;SDS011;38941;53.254;6.600;2024-03-02T08:49:27;2.63;;;0.82;;
51836;SDS011;38941;53.254;6.600;2024-03-02T08:51:28;1.13;;;0.80;;
51836;SDS011;38941;53.254;6.600;2024-03-02T08:53:29;1.48;;;0.90;;
51836;SDS011;38941;53.254;6.600;2024-03-02T08:55:30;1.50;;;0.70;;
51836;SDS011;38941;53.254;6.600;2024-03-02T08:57:31;1.73;;;0.65;;
51836;SDS011;38941;53.254;6.600;2024-03-02T08:59:32;2.05;;;0.85;;
51836;SDS011;38941;53.254;6.600;2024-03-02T09:01:33;4.28;;;1.80;;
51836;SDS011;38941;53.254;6.600;2024-03-02T09:03:34;3.58;;;0.90;;
51836;SDS011;38941;53.254;6.600;2024-03-02T09:05:35;1.40;;;0.75;;
51836;SDS011;38941;53.254;6.600;2024-03-02T09:07:36;1.70;;;0.90;;
51836;SDS011;38941;53.254;6.600;2024-03-02T09:09:38;3.38;;;0.80;;
51836;SDS011;38941;53.254;6.600;2024-03-02T09:11:39;2.92;;;0.98;;
51836;SDS011;38941;53.254;6.600;2024-03-02T09:13:40;1.92;;;0.88;;
51836;SDS011;38941;53.254;6.600;2024-03-02T09:15:41;2.10;;;0.90;;
51836;SDS011;38941;53.254;6.600;2024-03-02T09:17:42;1.35;;;0.70;;
51836;SDS011;38941;53.254;6.600;2024-03-02T09:19:42;1.10;;;0.60;;
51836;SDS011;38941;53.254;6.600;2024-03-02T09:21:43;1.70;;;0.70;;
51836;SDS011;38941;53.254;6.600;2024-03-02T09:23:44;2.53;;;0.60;;
51836;SDS011;38941;53.254;6.600;2024-03-02T09:25:46;1.75;;;0.60;;
51836;SDS011;38941;53.254;6.600;2024-03-02T09:27:47;1.98;;;0.60;;
51836;SDS011;38941;53.254;6.600;2024-03-02T09:29:47;0.85;;;0.60;;
51836;SDS011;38941;53.254;6.600;2024-03-02T09:31:48;1.98;;;0.88;;
51836;SDS011;38941;53.254;6.600;2024-03-02T09:33:51;3.17;;;0.77;;
51836;SDS011;38941;53.254;6.600;2024-03-02T09:35:52;2.90;;;0.85;;
51836;SDS011;38941;53.254;6.600;2024-03-02T09:37:53;1.80;;;1.00;;
51836;SDS011;38941;53.254;6.600;2024-03-02T09:39:54;2.50;;;0.60;;
51836;SDS011;38941;53.254;6.600;2024-03-02T09:41:55;1.15;;;0.50;;
51836;SDS011;38941;53.254;6.600;2024-03-02T09:43:56;2.67;;;1.00;;
51836;SDS011;38941;53.254;6.600;2024-03-02T09:45:58;2.42;;;0.70;;
51836;SDS011;38941;53.254;6.600;2024-03-02T09:47:59;0.45;;;0.40;;
51836;SDS011;38941;53.254;6.600;2024-03-02T09:50:00;1.50;;;0.47;;
51836;SDS011;38941;53.254;6.600;2024-03-02T09:52:02;2.72;;;0.50;;
51836;SDS011;38941;53.254;6.600;2024-03-02T09:54:04;2.63;;;1.20;;
51836;SDS011;38941;53.254;6.600;2024-03-02T09:56:09;0.93;;;0.45;;
51836;SDS011;38941;53.254;6.600;2024-03-02T09:58:09;2.45;;;0.63;;
51836;SDS011;38941;53.254;6.600;2024-03-02T10:00:10;3.20;;;0.88;;
51836;SDS011;38941;53.254;6.600;2024-03-02T10:02:14;2.83;;;0.60;;
51836;SDS011;38941;53.254;6.600;2024-03-02T10:04:15;0.88;;;0.30;;
51836;SDS011;38941;53.254;6.600;2024-03-02T10:06:23;1.30;;;0.40;;
51836;SDS011;38941;53.254;6.600;2024-03-02T10:08:25;2.47;;;0.50;;
51836;SDS011;38941;53.254;6.600;2024-03-02T10:10:26;0.63;;;0.35;;
51836;SDS011;38941;53.254;6.600;2024-03-02T10:12:40;2.60;;;0.75;;
51836;SDS011;38941;53.254;6.600;2024-03-02T10:14:42;0.40;;;0.40;;
51836;SDS011;38941;53.254;6.600;2024-03-02T10:16:44;1.40;;;0.60;;
51836;SDS011;38941;53.254;6.600;2024-03-02T10:18:44;2.30;;;0.50;;
51836;SDS011;38941;53.254;6.600;2024-03-02T10:20:45;1.15;;;0.50;;
51836;SDS011;38941;53.254;6.600;2024-03-02T10:22:48;0.95;;;0.73;;
51836;SDS011;38941;53.254;6.600;2024-03-02T10:24:49;1.63;;;0.40;;
51836;SDS011;38941;53.254;6.600;2024-03-02T10:26:50;0.75;;;0.50;;
51836;SDS011;38941;53.254;6.600;2024-03-02T10:28:52;1.58;;;0.52;;
51836;SDS011;38941;53.254;6.600;2024-03-02T10:30:59;1.20;;;0.57;;
51836;SDS011;38941;53.254;6.600;2024-03-02T10:33:03;2.83;;;0.60;;
51836;SDS011;38941;53.254;6.600;2024-03-02T10:35:05;4.60;;;0.70;;
51836;SDS011;38941;53.254;6.600;2024-03-02T10:37:06;2.10;;;0.60;;
51836;SDS011;38941;53.254;6.600;2024-03-02T10:39:08;3.17;;;0.90;;
51836;SDS011;38941;53.254;6.600;2024-03-02T10:41:09;2.72;;;0.40;;
51836;SDS011;38941;53.254;6.600;2024-03-02T10:43:10;0.93;;;0.45;;
51836;SDS011;38941;53.254;6.600;2024-03-02T10:45:14;1.15;;;0.40;;
51836;SDS011;38941;53.254;6.600;2024-03-02T10:47:16;1.65;;;0.50;;
51836;SDS011;38941;53.254;6.600;2024-03-02T10:49:19;1.70;;;0.65;;
51836;SDS011;38941;53.254;6.600;2024-03-02T10:51:22;1.67;;;0.70;;
51836;SDS011;38941;53.254;6.600;2024-03-02T10:53:23;0.60;;;0.40;;
51836;SDS011;38941;53.254;6.600;2024-03-02T10:55:24;1.75;;;0.52;;
51836;SDS011;38941;53.254;6.600;2024-03-02T11:00:29;1.63;;;0.50;;
51836;SDS011;38941;53.254;6.600;2024-03-02T11:03:07;1.30;;;0.70;;
51836;SDS011;38941;53.254;6.600;2024-03-02T11:07:31;1.75;;;0.73;;
51836;SDS011;38941;53.254;6.600;2024-03-02T11:09:34;1.60;;;0.73;;
51836;SDS011;38941;53.254;6.600;2024-03-02T11:11:36;2.10;;;0.80;;
51836;SDS011;38941;53.254;6.600;2024-03-02T11:13:42;1.95;;;0.60;;
51836;SDS011;38941;53.254;6.600;2024-03-02T11:15:49;2.45;;;0.77;;
51836;SDS011;38941;53.254;6.600;2024-03-02T11:17:55;1.75;;;1.05;;
51836;SDS011;38941;53.254;6.600;2024-03-02T11:19:57;0.52;;;0.40;;
51836;SDS011;38941;53.254;6.600;2024-03-02T11:21:58;1.02;;;0.55;;
51836;SDS011;38941;53.254;6.600;2024-03-02T11:24:00;3.65;;;0.80;;
51836;SDS011;38941;53.254;6.600;2024-03-02T11:26:21;1.55;;;0.60;;
51836;SDS011;38941;53.254;6.600;2024-03-02T11:28:34;1.27;;;0.50;;
51836;SDS011;38941;53.254;6.600;2024-03-02T11:32:39;1.10;;;0.70;;
51836;SDS011;38941;53.254;6.600;2024-03-02T11:34:41;4.82;;;1.92;;
51836;SDS011;38941;53.254;6.600;2024-03-02T11:36:49;0.82;;;0.32;;
51836;SDS011;38941;53.254;6.600;2024-03-02T11:38:50;2.65;;;0.55;;
51836;SDS011;38941;53.254;6.600;2024-03-02T11:40:53;1.08;;;0.50;;
51836;SDS011;38941;53.254;6.600;2024-03-02T11:42:54;2.40;;;0.70;;
51836;SDS011;38941;53.254;6.600;2024-03-02T11:44:55;0.73;;;0.50;;
51836;SDS011;38941;53.254;6.600;2024-03-02T11:47:06;2.22;;;0.90;;
51836;SDS011;38941;53.254;6.600;2024-03-02T11:49:08;1.55;;;0.60;;
51836;SDS011;38941;53.254;6.600;2024-03-02T11:51:09;2.00;;;0.80;;
51836;SDS011;38941;53.254;6.600;2024-03-02T11:53:12;2.85;;;0.57;;
51836;SDS011;38941;53.254;6.600;2024-03-02T11:55:14;2.78;;;0.65;;
51836;SDS011;38941;53.254;6.600;2024-03-02T11:57:15;1.90;;;0.50;;
51836;SDS011;38941;53.254;6.600;2024-03-02T11:59:17;3.13;;;1.05;;
51836;SDS011;38941;53.254;6.600;2024-03-02T12:01:18;2.70;;;0.57;;
51836;SDS011;38941;53.254;6.600;2024-03-02T12:03:21;1.10;;;0.70;;
51836;SDS011;38941;53.254;6.600;2024-03-02T12:05:26;1.25;;;0.50;;
51836;SDS011;38941;53.254;6.600;2024-03-02T12:07:27;1.83;;;0.93;;
51836;SDS011;38941;53.254;6.600;2024-03-02T12:09:30;1.85;;;0.60;;
51836;SDS011;38941;53.254;6.600;2024-03-02T12:11:31;0.95;;;0.75;;
51836;SDS011;38941;53.254;6.600;2024-03-02T12:13:32;2.50;;;0.60;;
51836;SDS011;38941;53.254;6.600;2024-03-02T12:15:34;1.73;;;0.60;;
51836;SDS011;38941;53.254;6.600;2024-03-02T12:17:40;2.97;;;1.00;;
51836;SDS011;38941;53.254;6.600;2024-03-02T12:19:41;0.98;;;0.68;;
51836;SDS011;38941;53.254;6.600;2024-03-02T12:21:42;1.52;;;0.60;;
51836;SDS011;38941;53.254;6.600;2024-03-02T12:23:44;2.17;;;0.60;;
51836;SDS011;38941;53.254;6.600;2024-03-02T12:25:45;2.15;;;0.93;;
51836;SDS011;38941;53.254;6.600;2024-03-02T12:27:49;2.22;;;0.70;;
51836;SDS011;38941;53.254;6.600;2024-03-02T12:29:51;1.25;;;0.60;;
51836;SDS011;38941;53.254;6.600;2024-03-02T12:31:52;2.33;;;0.60;;